createdAt,value
2023-07-26T00:01:27.267Z,4.8
2023-07-26T00:06:56.731Z,0
2023-07-26T00:12:46.201Z,3.6
2023-07-26T00:18:01.154Z,5.9
2023-07-26T00:23:27.973Z,8.4
2023-07-26T00:29:30.355Z,9.6
2023-07-26T00:34:46.251Z,5.9
2023-07-26T00:40:34.212Z,0
2023-07-26T00:45:46.747Z,0
2023-07-26T00:51:39.373Z,5.9
2023-07-26T00:57:15.213Z,7.2
2023-07-26T01:02:35.574Z,4.8
2023-07-26T01:08:25.476Z,0
2023-07-26T01:13:35.919Z,0
2023-07-26T01:19:08.524Z,0
2023-07-26T01:24:41.567Z,0
2023-07-26T01:30:40.803Z,0
2023-07-26T01:35:52.842Z,2.4
2023-07-26T01:41:38.432Z,4.8
2023-07-26T01:47:12.346Z,3.6
2023-07-26T01:52:51.389Z,4.8
2023-07-26T01:58:11.682Z,3.6
2023-07-26T02:03:51.408Z,0
2023-07-26T02:09:31.923Z,0
2023-07-26T02:15:05.559Z,0
2023-07-26T02:20:41.255Z,0
2023-07-26T02:31:48.995Z,0
2023-07-26T02:37:07.232Z,0
2023-07-26T02:42:54.207Z,0
2023-07-26T02:48:17.211Z,0
2023-07-26T02:53:55.511Z,3.6
2023-07-26T02:59:19.681Z,4.8
2023-07-26T03:05:03.049Z,0
2023-07-26T03:10:29.611Z,0
2023-07-26T03:16:14.635Z,0
2023-07-26T03:21:36.091Z,0
2023-07-26T03:27:30.715Z,0
2023-07-26T03:33:01.374Z,3.6
2023-07-26T03:38:19.099Z,0
2023-07-26T03:44:07.413Z,0
2023-07-26T03:49:26.970Z,0
2023-07-26T03:55:15.209Z,0
2023-07-26T04:00:45.216Z,0
2023-07-26T04:17:29.098Z,0
2023-07-26T04:22:45.575Z,0
2023-07-26T04:28:25.252Z,0
2023-07-26T04:34:07.985Z,0
2023-07-26T04:39:30.244Z,0
2023-07-26T04:45:12.647Z,0
2023-07-26T04:50:55.241Z,0
2023-07-26T05:01:40.999Z,3.6
2023-07-26T05:07:35.130Z,0
2023-07-26T05:12:56.437Z,0
2023-07-26T05:18:32.093Z,0
2023-07-26T05:24:18.971Z,0
2023-07-26T05:29:38.544Z,0
2023-07-26T05:34:58.473Z,0
2023-07-26T05:40:32.187Z,0
2023-07-26T05:46:31.486Z,4.8
2023-07-26T05:52:03.491Z,0
2023-07-26T05:57:17.544Z,0
2023-07-26T06:02:53.565Z,0
2023-07-26T06:08:22.473Z,0
2023-07-26T06:14:21.461Z,0
2023-07-26T06:19:36.552Z,0
2023-07-26T06:25:03.190Z,0
2023-07-26T06:41:42.704Z,3.6
2023-07-26T06:47:31.277Z,0
2023-07-26T06:53:17.919Z,0
2023-07-26T06:58:32.413Z,0
2023-07-26T07:04:13.985Z,0
2023-07-26T07:09:32.053Z,4.8
2023-07-26T07:15:17.370Z,3.6
2023-07-26T07:21:07.934Z,0
2023-07-26T07:26:29.195Z,0
2023-07-26T07:32:12.283Z,0
2023-07-26T07:37:47.485Z,0
2023-07-26T07:43:01.226Z,0
2023-07-26T07:48:31.206Z,3.6
2023-07-26T07:54:05.242Z,4.8
2023-07-26T07:59:47.991Z,0
2023-07-26T08:05:28.556Z,0
2023-07-26T08:16:35.261Z,0
2023-07-26T08:22:03.896Z,0
2023-07-26T08:33:21.155Z,0
2023-07-26T08:38:46.482Z,3.6
2023-07-26T08:44:44.147Z,4.8
2023-07-26T08:50:21.274Z,4.8
2023-07-26T09:00:58.452Z,1.4
2023-07-26T09:07:04.336Z,5.9
2023-07-26T09:12:31.981Z,3.6
2023-07-26T09:29:28.907Z,7.2
2023-07-26T09:57:13.221Z,10.7
2023-07-26T10:03:10.499Z,7.2
2023-07-26T10:08:43.675Z,7.2
2023-07-26T10:14:18.370Z,9.6
2023-07-26T10:19:38.975Z,10.7
2023-07-26T10:25:28.494Z,10.7
2023-07-26T10:31:03.290Z,7.2
2023-07-26T10:36:40.236Z,8.4
2023-07-26T10:41:58.255Z,8.4
2023-07-26T10:47:37.006Z,7.2
2023-07-26T10:53:34.986Z,9.6
2023-07-26T11:10:26.273Z,7.2
2023-07-26T11:16:14.533Z,8.4
2023-07-26T11:21:18.573Z,8.4
2023-07-26T11:38:07.866Z,10.7
2023-07-26T12:28:59.105Z,10.7
2023-07-26T12:39:59.518Z,8.4
2023-07-26T12:45:56.090Z,10.7
2023-07-26T13:13:38.457Z,11.9
2023-07-26T13:19:23.608Z,8.4
2023-07-26T13:24:48.376Z,8.4
2023-07-26T13:47:29.054Z,8.4
2023-07-26T13:53:09.647Z,8.4
2023-07-26T13:58:49.087Z,8.4
2023-07-26T14:03:56.085Z,5.9
2023-07-26T14:26:31.994Z,0
2023-07-26T14:43:25.573Z,3.6
2023-07-26T14:54:27.023Z,0
2023-07-26T15:00:14.298Z,5.9
2023-07-26T15:05:53.908Z,9.6
2023-07-26T15:11:09.989Z,9.6
2023-07-26T15:17:09.257Z,11.9
2023-07-26T15:22:39.231Z,14.4
2023-07-26T15:27:56.381Z,15.6
2023-07-26T15:33:53.407Z,15.6
2023-07-26T15:39:27.090Z,13.2
2023-07-26T15:56:02.665Z,10.7
2023-07-26T16:01:47.056Z,10.7
2023-07-26T16:07:19.337Z,7.2
2023-07-26T16:13:01.187Z,5.9
2023-07-26T16:57:48.842Z,4.8
2023-07-26T17:31:46.000Z,4.8
2023-07-26T17:37:27.328Z,3.6
2023-07-26T17:43:15.685Z,4.8
2023-07-26T17:48:39.679Z,0
2023-07-26T18:10:56.246Z,3.6
2023-07-26T18:22:15.664Z,3.6
2023-07-26T18:28:08.381Z,4.8
2023-07-26T18:33:18.281Z,2.4
2023-07-26T18:39:09.051Z,0
2023-07-26T18:44:46.200Z,0
2023-07-26T18:55:38.646Z,0
